Gold Lake Estates, Arkansas
Current Conditions -  °F | °C
As of 1:58 AM on Saturday 22 Nov 2014 (Local Time) from KLRF Reporting Station
Haze Haze  
Wind Chill: 46°   Ceiling: Unl
Heat Index: 46°   Visibility: 6mi
Dew Point: 45°   Wind: 0mph
Humidity: 98%   Direction: NA
Pressure: 30.23"   Gusts: NA
Location:  35.0822°N, 92.366°W
Report Text: KLRF 220758Z AUTO 00000KT 6SM BR FEW100 08/07 A3023 RMK AO2 SLP241 T00750072
Loading
Personal Weather Stations






























Interactive Weather Map New forecast layout! Learn more

10-Day Weather Forecast

Advertisements
Track Severe Weather on mobile